createdAt,value
2022-11-03T00:00:12.413Z,10.70
2022-11-03T00:02:39.536Z,10.75
2022-11-03T00:05:06.157Z,11.90
2022-11-03T00:07:32.716Z,10.98
2022-11-03T00:09:59.340Z,17.67
2022-11-03T00:12:25.739Z,11.52
2022-11-03T00:14:52.139Z,12.82
2022-11-03T00:17:18.543Z,13.02
2022-11-03T00:19:45.198Z,12.35
2022-11-03T00:22:11.645Z,11.05
2022-11-03T00:24:37.950Z,10.73
2022-11-03T00:27:04.463Z,10.68
2022-11-03T00:29:30.996Z,14.95
2022-11-03T00:31:57.319Z,15.50
2022-11-03T00:34:23.802Z,13.63
2022-11-03T00:36:50.282Z,11.80
2022-11-03T00:39:16.752Z,14.77
2022-11-03T00:41:43.081Z,13.98
2022-11-03T00:44:09.473Z,16.63
2022-11-03T00:46:36.295Z,16.80
2022-11-03T00:49:06.360Z,14.75
2022-11-03T00:51:33.504Z,15.68
2022-11-03T00:54:02.194Z,12.75
2022-11-03T00:56:31.442Z,15.52
2022-11-03T00:58:59.228Z,16.10
2022-11-03T01:01:28.216Z,19.85
2022-11-03T01:03:56.840Z,12.77
2022-11-03T01:06:23.356Z,18.15
2022-11-03T01:08:49.637Z,15.77
2022-11-03T01:11:22.226Z,13.73
2022-11-03T01:13:48.730Z,13.18
2022-11-03T01:16:15.246Z,14.07
2022-11-03T01:18:42.009Z,12.90
2022-11-03T01:21:08.498Z,13.60
2022-11-03T01:23:35.730Z,14.15
2022-11-03T01:26:06.660Z,11.25
2022-11-03T01:31:17.070Z,13.43
2022-11-03T01:33:44.250Z,14.13
2022-11-03T01:36:10.613Z,11.93
2022-11-03T01:38:37.187Z,12.98
2022-11-03T01:41:05.759Z,12.90
2022-11-03T01:43:32.580Z,12.82
2022-11-03T01:46:10.840Z,12.85
2022-11-03T01:48:43.073Z,10.88
2022-11-03T01:51:13.208Z,12.85
2022-11-03T01:53:43.912Z,10.27
2022-11-03T01:56:12.401Z,13.02
2022-11-03T01:58:41.555Z,11.95
2022-11-03T02:01:08.162Z,18.98
2022-11-03T02:03:39.395Z,14.10
2022-11-03T02:06:06.865Z,10.02
2022-11-03T02:08:41.432Z,17.08
2022-11-03T02:11:07.989Z,10.70
2022-11-03T02:13:34.362Z,14.10
2022-11-03T02:16:01.020Z,9.88
2022-11-03T02:18:31.644Z,10.68
2022-11-03T02:21:09.306Z,16.77
2022-11-03T02:24:01.649Z,15.77
2022-11-03T02:26:28.229Z,23.23
2022-11-03T02:28:54.918Z,16.98
2022-11-03T02:31:42.111Z,16.13
2022-11-03T02:34:16.264Z,14.30
2022-11-03T02:36:59.191Z,18.73
2022-11-03T02:39:38.500Z,16.90
2022-11-03T02:42:06.799Z,15.85
2022-11-03T02:44:34.223Z,16.75
2022-11-03T02:47:06.925Z,12.93
2022-11-03T02:49:39.412Z,15.75
2022-11-03T02:52:06.740Z,14.18
2022-11-03T02:54:43.677Z,15.60
2022-11-03T02:57:14.378Z,15.70
2022-11-03T02:59:50.165Z,13.90
2022-11-03T03:02:24.107Z,16.05
2022-11-03T03:04:56.075Z,19.17
2022-11-03T03:07:27.699Z,15.63
2022-11-03T03:10:01.708Z,13.48
2022-11-03T03:12:28.587Z,19.45
2022-11-03T03:14:58.157Z,18.10
2022-11-03T03:17:40.341Z,16.77
2022-11-03T03:20:24.940Z,13.18
2022-11-03T03:23:06.210Z,16.95
2022-11-03T03:25:49.212Z,12.35
2022-11-03T03:28:37.561Z,13.80
2022-11-03T03:31:08.963Z,14.63
2022-11-03T03:33:35.852Z,20.35
2022-11-03T03:36:06.398Z,12.95
2022-11-03T03:38:38.574Z,16.08
2022-11-03T03:41:10.704Z,13.80
2022-11-03T03:43:37.899Z,13.18
2022-11-03T03:46:08.056Z,14.63
2022-11-03T03:48:34.950Z,11.48
2022-11-03T03:51:02.431Z,13.00
2022-11-03T03:53:30.277Z,13.37
2022-11-03T03:55:58.040Z,10.50
2022-11-03T03:58:24.346Z,12.50
2022-11-03T04:00:50.844Z,13.20
2022-11-03T04:03:19.930Z,14.57
2022-11-03T04:05:47.283Z,15.15
2022-11-03T04:08:14.601Z,13.83
2022-11-03T04:10:41.098Z,14.00
2022-11-03T04:13:08.715Z,11.23
2022-11-03T04:15:35.918Z,11.98
2022-11-03T04:18:02.540Z,10.30
2022-11-03T04:20:29.085Z,9.70
2022-11-03T04:22:55.528Z,13.10
2022-11-03T04:25:21.972Z,12.77
2022-11-03T04:27:48.379Z,16.40
2022-11-03T04:30:20.369Z,14.82
2022-11-03T04:32:48.827Z,15.07
2022-11-03T04:35:20.579Z,15.67
2022-11-03T04:37:51.929Z,16.20
2022-11-03T04:40:19.013Z,19.47
2022-11-03T04:42:45.538Z,10.03
2022-11-03T04:45:32.915Z,11.93
2022-11-03T04:48:01.678Z,13.33
2022-11-03T04:50:28.339Z,12.93
2022-11-03T04:52:58.723Z,14.73
2022-11-03T04:55:25.926Z,17.23
2022-11-03T04:58:00.192Z,14.23
2022-11-03T05:00:26.719Z,13.70
2022-11-03T05:02:56.036Z,17.07
2022-11-03T05:05:25.881Z,12.50
2022-11-03T05:07:54.685Z,13.13
2022-11-03T05:10:25.874Z,12.93
2022-11-03T05:12:54.395Z,10.68
2022-11-03T05:15:41.135Z,13.93
2022-11-03T05:18:38.865Z,9.40
2022-11-03T05:21:12.305Z,11.95
2022-11-03T05:23:41.556Z,14.07
2022-11-03T05:26:19.901Z,14.50
2022-11-03T05:28:50.751Z,14.27
2022-11-03T05:33:57.531Z,18.77
2022-11-03T05:36:26.419Z,19.23
2022-11-03T05:38:58.567Z,21.33
2022-11-03T05:41:27.166Z,20.27
2022-11-03T05:44:02.247Z,23.33
2022-11-03T05:46:33.820Z,24.83
2022-11-03T05:49:02.370Z,21.33
2022-11-03T05:51:34.398Z,27.33
2022-11-03T05:54:04.508Z,37.25
2022-11-03T05:56:32.097Z,35.20
2022-11-03T05:59:00.151Z,36.58
2022-11-03T06:01:34.804Z,24.60
2022-11-03T06:04:07.128Z,30.90
2022-11-03T06:06:38.094Z,21.05
2022-11-03T06:09:19.631Z,19.85
2022-11-03T06:11:46.299Z,21.73
2022-11-03T06:14:21.237Z,27.55
2022-11-03T06:16:58.025Z,36.77
2022-11-03T06:19:35.598Z,39.28
2022-11-03T06:22:20.070Z,32.08
2022-11-03T06:24:47.258Z,45.15
2022-11-03T06:27:20.606Z,28.92
2022-11-03T06:29:50.789Z,28.85
2022-11-03T06:32:17.986Z,34.47
2022-11-03T06:34:48.604Z,26.60
2022-11-03T06:37:27.340Z,57.88
2022-11-03T06:39:59.866Z,31.85
2022-11-03T06:42:31.618Z,22.00
2022-11-03T06:44:58.820Z,14.43
2022-11-03T06:47:27.684Z,24.67
2022-11-03T06:49:56.681Z,22.60
2022-11-03T06:52:23.370Z,30.80
2022-11-03T06:54:54.128Z,41.90
2022-11-03T06:57:20.606Z,35.00
2022-11-03T06:59:47.028Z,34.42
2022-11-03T07:02:47.988Z,16.50
2022-11-03T07:05:22.869Z,23.02
2022-11-03T07:07:52.329Z,21.63
2022-11-03T07:10:18.825Z,23.70
2022-11-03T07:12:45.767Z,14.50
2022-11-03T07:15:22.992Z,14.63
2022-11-03T07:17:49.419Z,10.95
2022-11-03T07:20:16.495Z,10.32
2022-11-03T07:22:44.539Z,13.38
2022-11-03T07:25:17.648Z,10.38
2022-11-03T07:27:44.204Z,9.90
2022-11-03T07:30:18.621Z,10.18
2022-11-03T07:32:45.274Z,11.70
2022-11-03T07:35:17.821Z,8.80
2022-11-03T07:37:49.602Z,7.30
2022-11-03T07:40:23.274Z,9.90
2022-11-03T07:42:50.872Z,8.23
2022-11-03T07:45:51.470Z,9.68
2022-11-03T07:48:28.486Z,9.77
2022-11-03T07:50:59.162Z,17.55
2022-11-03T07:53:36.922Z,24.65
2022-11-03T07:56:15.521Z,19.30
2022-11-03T07:58:42.554Z,17.70
2022-11-03T08:01:30.143Z,13.07
2022-11-03T08:04:00.769Z,11.32
2022-11-03T08:06:27.384Z,11.60
2022-11-03T08:08:53.973Z,13.05
2022-11-03T08:11:23.212Z,14.45
2022-11-03T08:13:52.971Z,11.75
2022-11-03T08:16:20.226Z,11.15
2022-11-03T08:18:47.080Z,10.95
2022-11-03T08:21:13.705Z,12.65
2022-11-03T08:23:43.236Z,11.23
2022-11-03T08:26:13.635Z,11.60
2022-11-03T08:28:40.072Z,10.63
2022-11-03T08:31:11.143Z,12.00
2022-11-03T08:33:39.108Z,11.07
2022-11-03T08:36:06.154Z,10.73
2022-11-03T08:38:32.693Z,17.60
2022-11-03T08:40:59.243Z,12.05
2022-11-03T08:43:26.164Z,16.92
2022-11-03T08:45:53.100Z,15.23
2022-11-03T08:48:21.160Z,14.93
2022-11-03T08:50:48.071Z,16.52
2022-11-03T08:53:14.928Z,18.15
2022-11-03T08:55:41.478Z,19.35
2022-11-03T08:58:08.351Z,14.88
2022-11-03T09:00:40.548Z,15.75
2022-11-03T09:03:07.558Z,16.15
2022-11-03T09:05:33.956Z,15.13
2022-11-03T09:10:47.414Z,14.13
2022-11-03T09:13:14.124Z,11.30
2022-11-03T09:15:40.747Z,12.30
2022-11-03T09:18:07.324Z,14.88
2022-11-03T09:20:34.169Z,14.10
2022-11-03T09:23:00.562Z,11.52
2022-11-03T09:25:27.068Z,8.90
2022-11-03T09:27:53.569Z,10.50
2022-11-03T09:30:20.025Z,12.05
2022-11-03T09:32:46.580Z,13.13
2022-11-03T09:35:13.267Z,15.18
2022-11-03T09:37:39.729Z,16.52
2022-11-03T09:40:07.015Z,13.48
2022-11-03T09:42:34.568Z,10.27
2022-11-03T09:45:02.026Z,12.48
2022-11-03T09:47:38.136Z,11.20
2022-11-03T09:50:06.046Z,14.05
2022-11-03T09:52:34.527Z,13.80
2022-11-03T09:55:00.899Z,15.05
2022-11-03T09:57:28.267Z,9.80
2022-11-03T09:59:55.658Z,16.27
2022-11-03T10:02:25.045Z,14.48
2022-11-03T10:04:53.846Z,11.95
2022-11-03T10:07:21.263Z,13.35
2022-11-03T10:09:50.981Z,12.27
2022-11-03T10:12:17.906Z,23.50
2022-11-03T10:14:45.841Z,52.03
2022-11-03T10:17:20.978Z,31.52
2022-11-03T10:19:52.685Z,15.32
2022-11-03T10:22:22.650Z,28.10
2022-11-03T10:24:49.340Z,23.10
2022-11-03T10:27:23.726Z,17.52
2022-11-03T10:30:08.831Z,18.17
2022-11-03T10:32:35.746Z,25.13
2022-11-03T10:35:32.640Z,30.23
2022-11-03T10:38:32.429Z,13.65
2022-11-03T10:41:15.347Z,11.48
2022-11-03T10:43:44.936Z,11.88
2022-11-03T10:46:36.409Z,10.45
2022-11-03T10:49:14.342Z,11.10
2022-11-03T10:51:43.047Z,16.73
2022-11-03T10:54:14.193Z,10.48
2022-11-03T10:56:41.150Z,13.02
2022-11-03T10:59:18.586Z,13.73
2022-11-03T11:01:45.507Z,8.10
2022-11-03T11:04:16.402Z,9.73
2022-11-03T11:09:13.282Z,9.05
2022-11-03T11:11:39.886Z,11.93
2022-11-03T11:14:28.287Z,8.60
2022-11-03T11:16:57.250Z,12.15
2022-11-03T11:19:25.608Z,10.07
2022-11-03T11:21:54.893Z,11.10
2022-11-03T11:24:43.070Z,10.48
2022-11-03T11:27:31.408Z,11.60
2022-11-03T11:29:59.396Z,7.45
2022-11-03T11:32:44.636Z,11.57
2022-11-03T11:35:26.480Z,9.15
2022-11-03T11:37:53.886Z,14.20
2022-11-03T11:40:23.245Z,11.07
2022-11-03T11:43:01.479Z,15.75
2022-11-03T11:46:05.188Z,13.85
2022-11-03T11:48:31.962Z,14.48
2022-11-03T11:51:03.000Z,9.55
2022-11-03T11:53:38.792Z,13.18
2022-11-03T11:56:05.587Z,22.13
2022-11-03T11:58:31.988Z,14.00
2022-11-03T12:01:01.417Z,11.20
2022-11-03T12:03:32.322Z,14.80
2022-11-03T12:05:59.001Z,15.23
2022-11-03T12:08:27.748Z,17.58
2022-11-03T12:11:03.127Z,13.80
2022-11-03T12:13:50.014Z,13.68
2022-11-03T12:16:52.243Z,12.48
2022-11-03T12:19:50.243Z,13.60
2022-11-03T12:22:26.043Z,12.57
2022-11-03T12:24:59.611Z,13.95
2022-11-03T12:27:26.397Z,10.27
2022-11-03T12:30:04.557Z,13.20
2022-11-03T12:32:34.614Z,13.63
2022-11-03T12:35:06.084Z,14.70
2022-11-03T12:37:32.571Z,17.20
2022-11-03T12:39:59.015Z,13.60
2022-11-03T12:42:25.703Z,12.02
2022-11-03T12:44:53.081Z,11.25
2022-11-03T12:47:20.040Z,17.27
2022-11-03T12:49:46.514Z,14.73
2022-11-03T12:52:13.167Z,9.43
2022-11-03T12:54:39.515Z,17.85
2022-11-03T12:57:05.955Z,12.95
2022-11-03T12:59:32.454Z,20.80
2022-11-03T13:01:59.062Z,14.77
2022-11-03T13:04:25.653Z,50.40
2022-11-03T13:06:52.052Z,59.72
2022-11-03T13:09:18.386Z,21.58
2022-11-03T13:11:44.817Z,23.73
2022-11-03T13:14:12.131Z,17.23
2022-11-03T13:16:38.601Z,17.25
2022-11-03T13:19:04.927Z,14.32
2022-11-03T13:21:31.349Z,11.15
2022-11-03T13:23:57.816Z,20.33
2022-11-03T13:26:24.404Z,24.48
2022-11-03T13:28:50.741Z,19.63
2022-11-03T13:31:17.373Z,13.75
2022-11-03T13:33:43.771Z,21.05
2022-11-03T13:36:10.410Z,19.27
2022-11-03T13:38:37.024Z,23.33
2022-11-03T13:41:08.366Z,23.13
2022-11-03T13:43:35.521Z,17.13
2022-11-03T13:46:02.171Z,13.25
2022-11-03T13:51:15.471Z,19.45
2022-11-03T13:56:28.659Z,15.77
2022-11-03T14:01:42.078Z,14.40
2022-11-03T14:06:55.562Z,13.90
2022-11-03T14:09:22.037Z,14.38
2022-11-03T14:11:48.949Z,17.55
2022-11-03T14:14:15.464Z,18.73
2022-11-03T14:16:42.128Z,19.85
2022-11-03T14:19:08.715Z,16.48
2022-11-03T14:21:35.053Z,28.17
2022-11-03T14:24:01.621Z,24.38
2022-11-03T14:26:41.742Z,12.63
2022-11-03T14:29:09.799Z,17.52
2022-11-03T14:31:36.282Z,19.38
2022-11-03T14:34:04.101Z,16.85
2022-11-03T14:36:30.457Z,16.35
2022-11-03T14:38:56.864Z,18.17
2022-11-03T14:41:23.222Z,22.08
2022-11-03T14:43:49.749Z,16.17
2022-11-03T14:46:16.319Z,13.65
2022-11-03T14:48:42.757Z,14.75
2022-11-03T14:51:09.327Z,14.70
2022-11-03T14:53:35.798Z,9.13
2022-11-03T14:56:02.337Z,12.82
2022-11-03T14:58:28.757Z,10.10
2022-11-03T15:00:55.386Z,10.93
2022-11-03T15:03:21.833Z,14.05
2022-11-03T15:05:48.188Z,13.73
2022-11-03T15:08:17.551Z,12.13
2022-11-03T15:10:44.388Z,10.15
2022-11-03T15:13:10.805Z,12.73
2022-11-03T15:15:37.504Z,9.38
2022-11-03T15:18:04.185Z,7.43
2022-11-03T15:20:31.238Z,10.50
2022-11-03T15:25:44.357Z,11.88
2022-11-03T15:28:11.046Z,10.00
2022-11-03T15:30:38.143Z,10.48
2022-11-03T15:33:04.701Z,13.35
2022-11-03T15:35:31.114Z,15.07
2022-11-03T15:37:57.483Z,13.52
2022-11-03T15:40:23.834Z,17.85
2022-11-03T15:42:50.236Z,13.35
2022-11-03T15:45:16.837Z,11.73
2022-11-03T15:47:43.549Z,15.32
2022-11-03T15:50:11.445Z,12.93
2022-11-03T15:52:38.643Z,13.27
2022-11-03T15:55:06.541Z,13.98
2022-11-03T15:57:33.855Z,13.13
2022-11-03T16:00:00.799Z,14.20
2022-11-03T16:02:40.912Z,17.75
2022-11-03T16:07:35.181Z,17.20
2022-11-03T16:10:01.779Z,14.30
2022-11-03T16:12:28.486Z,15.15
2022-11-03T16:14:54.857Z,13.68
2022-11-03T16:17:21.154Z,14.05
2022-11-03T16:19:48.107Z,14.65
2022-11-03T16:22:14.740Z,15.63
2022-11-03T16:24:41.589Z,18.17
2022-11-03T16:27:08.124Z,17.85
2022-11-03T16:29:34.753Z,16.42
2022-11-03T16:32:01.292Z,18.67
2022-11-03T16:34:27.747Z,16.25
2022-11-03T16:36:54.273Z,15.05
2022-11-03T16:39:20.645Z,17.52
2022-11-03T16:41:47.029Z,17.98
2022-11-03T16:44:13.602Z,19.60
2022-11-03T16:46:40.113Z,17.20
2022-11-03T16:49:06.545Z,17.05
2022-11-03T16:51:33.006Z,18.63
2022-11-03T16:53:59.526Z,19.65
2022-11-03T16:56:25.833Z,18.98
2022-11-03T16:58:52.507Z,19.00
2022-11-03T17:01:19.261Z,19.25
2022-11-03T17:03:45.666Z,22.63
2022-11-03T17:06:12.058Z,17.35
2022-11-03T17:08:52.456Z,18.10
2022-11-03T17:11:20.204Z,17.50
2022-11-03T17:13:46.613Z,21.60
2022-11-03T17:16:12.971Z,19.35
2022-11-03T17:18:39.533Z,18.05
2022-11-03T17:21:06.143Z,15.27
2022-11-03T17:23:32.582Z,22.23
2022-11-03T17:26:00.768Z,17.75
2022-11-03T17:28:27.275Z,18.52
2022-11-03T17:30:53.691Z,16.23
2022-11-03T17:33:20.058Z,17.90
2022-11-03T17:35:46.877Z,19.10
2022-11-03T17:38:16.234Z,19.55
2022-11-03T17:40:44.878Z,17.40
2022-11-03T17:43:21.292Z,18.45
2022-11-03T17:45:47.845Z,15.45
2022-11-03T17:48:14.733Z,16.42
2022-11-03T17:50:51.920Z,17.27
2022-11-03T17:53:22.187Z,16.70
2022-11-03T17:56:08.999Z,23.90
2022-11-03T17:58:41.744Z,21.77
2022-11-03T18:01:12.999Z,19.00
2022-11-03T18:03:39.403Z,18.02
2022-11-03T18:06:14.980Z,17.40
2022-11-03T18:08:41.631Z,17.27
2022-11-03T18:11:09.165Z,25.42
2022-11-03T18:13:35.544Z,27.45
2022-11-03T18:16:11.877Z,25.33
2022-11-03T18:18:41.573Z,24.65
2022-11-03T18:21:13.699Z,30.83
2022-11-03T18:23:40.080Z,26.85
2022-11-03T18:26:26.501Z,22.92
2022-11-03T18:28:53.365Z,23.52
2022-11-03T18:31:43.006Z,26.67
2022-11-03T18:34:19.652Z,21.63
2022-11-03T18:36:46.267Z,25.30
2022-11-03T18:39:21.246Z,20.35
2022-11-03T18:41:47.764Z,21.13
2022-11-03T18:44:21.723Z,26.23
2022-11-03T18:46:49.146Z,28.08
2022-11-03T18:49:16.025Z,20.45
2022-11-03T18:51:47.848Z,22.85
2022-11-03T18:56:46.583Z,19.73
2022-11-03T18:59:23.994Z,22.70
2022-11-03T19:01:51.212Z,18.90
2022-11-03T19:04:18.262Z,24.00
2022-11-03T19:06:46.787Z,23.55
2022-11-03T19:09:15.784Z,27.38
2022-11-03T19:11:43.568Z,26.77
2022-11-03T19:14:16.256Z,25.20
2022-11-03T19:17:01.998Z,23.20
2022-11-03T19:19:30.282Z,24.73
2022-11-03T19:21:56.869Z,27.15
2022-11-03T19:24:23.553Z,22.83
2022-11-03T19:26:59.274Z,21.65
2022-11-03T19:29:31.643Z,25.33
2022-11-03T19:31:58.487Z,19.20
2022-11-03T19:34:28.176Z,21.92
2022-11-03T19:36:54.799Z,17.90
2022-11-03T19:39:24.338Z,17.63
2022-11-03T19:41:51.148Z,16.92
2022-11-03T19:44:17.550Z,16.15
2022-11-03T19:46:44.057Z,22.50
2022-11-03T19:49:13.987Z,19.65
2022-11-03T19:51:40.681Z,21.83
2022-11-03T19:54:15.365Z,16.77
2022-11-03T19:56:42.215Z,18.08
2022-11-03T19:59:12.257Z,17.63
2022-11-03T20:01:38.916Z,20.27
2022-11-03T20:04:05.738Z,17.90
2022-11-03T20:06:33.122Z,17.55
2022-11-03T20:09:01.216Z,17.95
2022-11-03T20:11:27.895Z,23.38
2022-11-03T20:13:54.723Z,20.75
2022-11-03T20:16:21.445Z,19.40
2022-11-03T20:18:47.873Z,18.85
2022-11-03T20:21:15.983Z,23.35
2022-11-03T20:23:43.232Z,20.00
2022-11-03T20:26:16.446Z,24.90
2022-11-03T20:28:43.620Z,26.05
2022-11-03T20:31:12.332Z,27.10
2022-11-03T20:33:39.467Z,30.90
2022-11-03T20:36:06.413Z,24.80
2022-11-03T20:38:33.476Z,28.92
2022-11-03T20:41:04.027Z,26.00
2022-11-03T20:43:31.958Z,25.30
2022-11-03T20:45:59.546Z,26.08
2022-11-03T20:48:26.384Z,24.40
2022-11-03T20:50:54.497Z,23.42
2022-11-03T20:53:23.506Z,19.63
2022-11-03T20:55:50.681Z,30.00
2022-11-03T20:58:18.778Z,24.33
2022-11-03T21:00:48.479Z,23.13
2022-11-03T21:03:44.980Z,20.55
2022-11-03T21:06:13.293Z,23.83
2022-11-03T21:08:39.743Z,25.50
2022-11-03T21:11:14.662Z,21.55
2022-11-03T21:13:41.195Z,27.15
2022-11-03T21:16:24.016Z,25.40
2022-11-03T21:18:51.065Z,26.52
2022-11-03T21:21:20.922Z,29.42
2022-11-03T21:23:47.821Z,27.83
2022-11-03T21:26:14.439Z,33.88
2022-11-03T21:28:40.905Z,28.77
2022-11-03T21:31:13.048Z,24.45
2022-11-03T21:33:40.666Z,28.40
2022-11-03T21:36:07.579Z,27.90
2022-11-03T21:38:33.943Z,26.65
2022-11-03T21:41:00.367Z,26.95
2022-11-03T21:43:26.854Z,30.58
2022-11-03T21:45:53.288Z,26.20
2022-11-03T21:48:20.130Z,27.20
2022-11-03T21:50:46.983Z,31.45
2022-11-03T21:53:13.642Z,36.60
2022-11-03T21:55:40.724Z,26.42
2022-11-03T21:58:07.640Z,29.88
2022-11-03T22:00:34.557Z,30.67
2022-11-03T22:03:01.642Z,26.52
2022-11-03T22:05:28.300Z,28.80
2022-11-03T22:07:54.854Z,27.00
2022-11-03T22:10:21.247Z,30.08
2022-11-03T22:12:47.702Z,34.92
2022-11-03T22:15:14.140Z,29.83
2022-11-03T22:17:40.583Z,28.38
2022-11-03T22:20:07.406Z,26.63
2022-11-03T22:22:33.903Z,24.80
2022-11-03T22:25:00.634Z,28.67
2022-11-03T22:27:28.463Z,29.95
2022-11-03T22:29:55.290Z,29.70
2022-11-03T22:32:21.792Z,26.45
2022-11-03T22:34:48.195Z,29.52
2022-11-03T22:37:14.824Z,32.63
2022-11-03T22:39:41.429Z,30.88
2022-11-03T22:42:10.885Z,31.63
2022-11-03T22:44:37.570Z,29.05
2022-11-03T22:47:06.774Z,27.92
2022-11-03T22:49:34.790Z,35.10
2022-11-03T22:52:01.408Z,37.35
2022-11-03T22:54:27.764Z,27.85
2022-11-03T22:56:54.190Z,34.13
2022-11-03T22:59:21.302Z,31.90
2022-11-03T23:01:47.836Z,30.67
2022-11-03T23:04:14.226Z,30.85
2022-11-03T23:06:40.953Z,32.97
2022-11-03T23:09:08.842Z,26.48
2022-11-03T23:11:35.297Z,24.73
2022-11-03T23:14:07.247Z,27.58
2022-11-03T23:16:35.873Z,24.60
2022-11-03T23:19:03.496Z,24.02
2022-11-03T23:21:30.951Z,27.88
2022-11-03T23:23:58.152Z,23.17
2022-11-03T23:26:26.468Z,24.58
2022-11-03T23:28:53.068Z,27.20
2022-11-03T23:31:19.497Z,24.30
2022-11-03T23:33:45.892Z,22.40
2022-11-03T23:36:14.559Z,24.23
2022-11-03T23:38:42.490Z,22.45
2022-11-03T23:41:17.474Z,21.88
2022-11-03T23:43:45.151Z,23.00
2022-11-03T23:46:13.842Z,23.48
2022-11-03T23:48:40.392Z,22.92
2022-11-03T23:51:06.934Z,23.10
2022-11-03T23:53:33.371Z,23.10
2022-11-03T23:56:00.411Z,25.88
2022-11-03T23:58:26.940Z,25.38
